createdAt,value
2022-10-04T04:30:52.822Z,0.00
2022-10-04T04:31:52.732Z,0.00
2022-10-04T04:32:52.703Z,0.00
2022-10-04T04:33:52.673Z,0.00
2022-10-04T04:34:52.657Z,0.00
2022-10-04T04:35:52.645Z,0.00
2022-10-04T04:36:52.641Z,0.00
2022-10-04T04:37:52.611Z,0.00
2022-10-04T04:38:52.611Z,0.00
2022-10-04T04:39:52.591Z,0.00
2022-10-04T04:40:52.577Z,0.00
2022-10-04T04:41:52.762Z,0.00
2022-10-04T04:42:52.570Z,0.00
2022-10-04T04:43:52.561Z,0.00
2022-10-04T04:44:52.538Z,0.00
2022-10-04T04:46:08.877Z,0.00
2022-10-04T04:46:53.595Z,0.00
2022-10-04T04:47:52.524Z,0.00
2022-10-04T04:48:52.491Z,0.00
2022-10-04T04:49:52.477Z,0.00
2022-10-04T04:50:52.475Z,0.00
2022-10-04T04:51:52.463Z,0.00
2022-10-04T04:52:52.476Z,0.00
2022-10-04T04:53:52.436Z,0.00
2022-10-04T04:54:52.424Z,0.00
2022-10-04T04:56:10.599Z,0.00
2022-10-04T04:56:53.427Z,0.00
2022-10-04T04:57:52.396Z,0.00
2022-10-04T04:58:52.390Z,0.00
2022-10-04T04:59:52.374Z,0.00
2022-10-04T05:00:52.445Z,0.00
2022-10-04T05:01:52.393Z,0.00
2022-10-04T05:02:57.547Z,0.00
2022-10-04T05:03:53.346Z,0.00
2022-10-04T05:04:52.338Z,0.00
2022-10-04T05:05:52.337Z,0.00
2022-10-04T05:06:52.308Z,0.00
2022-10-04T05:07:52.280Z,0.00
2022-10-04T05:08:52.276Z,0.00
2022-10-04T05:09:52.263Z,0.00
2022-10-04T05:10:52.254Z,0.00
2022-10-04T05:11:52.254Z,0.00
2022-10-04T05:12:52.239Z,0.00
2022-10-04T05:13:52.214Z,0.00
2022-10-04T05:14:52.259Z,0.00
2022-10-04T05:15:52.198Z,0.00
2022-10-04T05:16:52.239Z,0.00
2022-10-04T05:17:52.174Z,0.00
2022-10-04T05:18:52.214Z,0.00
2022-10-04T05:19:52.155Z,0.00
2022-10-04T05:20:52.136Z,4.00
2022-10-04T05:21:52.153Z,4.00
2022-10-04T05:22:52.140Z,0.00
2022-10-04T05:23:52.097Z,0.00
2022-10-04T05:24:52.098Z,4.00
2022-10-04T05:25:52.086Z,4.00
2022-10-04T05:26:52.077Z,0.00
2022-10-04T05:27:52.122Z,4.00
2022-10-04T05:28:52.075Z,4.00
2022-10-04T05:29:52.061Z,4.00
2022-10-04T05:30:52.030Z,4.00
2022-10-04T05:31:52.033Z,4.00
2022-10-04T05:32:52.033Z,4.00
2022-10-04T05:33:52.003Z,4.00
2022-10-04T05:34:52.026Z,8.00
2022-10-04T05:35:51.973Z,4.00
2022-10-04T05:36:51.978Z,8.00
2022-10-04T05:37:51.958Z,8.00
2022-10-04T05:38:51.970Z,8.00
2022-10-04T05:39:51.951Z,8.00
2022-10-04T05:40:51.927Z,12.00
2022-10-04T05:41:51.908Z,12.00
2022-10-04T05:42:51.896Z,12.00
2022-10-04T05:43:51.906Z,8.00
2022-10-04T05:44:51.892Z,12.00
2022-10-04T05:45:51.909Z,12.00
2022-10-04T05:46:51.855Z,16.00
2022-10-04T05:47:51.855Z,16.00
2022-10-04T05:48:51.847Z,16.00
2022-10-04T05:49:51.822Z,20.00
2022-10-04T05:50:51.827Z,16.00
2022-10-04T05:51:51.813Z,20.00
2022-10-04T05:52:51.789Z,20.00
2022-10-04T05:53:51.808Z,24.00
2022-10-04T05:54:51.772Z,28.00
2022-10-04T05:55:51.754Z,32.00
2022-10-04T05:56:51.750Z,32.00
2022-10-04T05:57:51.739Z,36.00
2022-10-04T05:58:51.719Z,40.00
2022-10-04T05:59:51.745Z,44.00
2022-10-04T06:00:51.759Z,44.00
2022-10-04T06:01:51.750Z,52.00
2022-10-04T06:02:51.716Z,56.00
2022-10-04T06:03:51.696Z,60.00
2022-10-04T06:04:51.659Z,64.00
2022-10-04T06:05:51.654Z,64.00
2022-10-04T06:06:51.673Z,68.00
2022-10-04T06:07:51.619Z,64.00
2022-10-04T06:08:51.647Z,72.00
2022-10-04T06:09:51.604Z,72.00
2022-10-04T06:10:51.599Z,80.00
2022-10-04T06:11:51.613Z,80.00
2022-10-04T06:12:51.570Z,80.00
2022-10-04T06:13:51.557Z,80.00
2022-10-04T06:14:51.570Z,84.00
2022-10-04T06:15:51.528Z,84.00
2022-10-04T06:16:51.618Z,88.00
2022-10-04T06:17:51.527Z,88.00
2022-10-04T06:18:51.502Z,84.00
2022-10-04T06:19:51.497Z,88.00
2022-10-04T06:20:51.483Z,84.00
2022-10-04T06:21:51.483Z,92.00
2022-10-04T06:22:51.479Z,92.00
2022-10-04T06:23:51.477Z,96.00
2022-10-04T06:24:51.445Z,100.00
2022-10-04T06:25:51.429Z,104.00
2022-10-04T06:26:51.435Z,112.00
2022-10-04T06:27:51.478Z,116.00
2022-10-04T06:28:51.395Z,124.00
2022-10-04T06:29:51.377Z,124.00
2022-10-04T06:30:51.410Z,128.00
2022-10-04T06:31:54.278Z,124.00
2022-10-04T06:32:51.363Z,124.00
2022-10-04T06:33:51.337Z,132.00
2022-10-04T06:34:51.328Z,136.00
2022-10-04T06:35:51.314Z,132.00
2022-10-04T06:36:51.305Z,132.00
2022-10-04T06:37:51.303Z,144.00
2022-10-04T06:38:51.304Z,144.00
2022-10-04T06:39:51.268Z,140.00
2022-10-04T06:40:51.259Z,144.00
2022-10-04T06:41:51.279Z,132.00
2022-10-04T06:42:51.246Z,132.00
2022-10-04T06:43:51.231Z,128.00
2022-10-04T06:44:51.231Z,132.00
2022-10-04T06:45:51.318Z,136.00
2022-10-04T06:46:51.202Z,136.00
2022-10-04T06:47:51.205Z,132.00
2022-10-04T06:48:51.170Z,128.00
2022-10-04T06:49:51.179Z,128.00
2022-10-04T06:50:51.154Z,128.00
2022-10-04T06:51:51.157Z,124.00
2022-10-04T06:52:51.163Z,128.00
2022-10-04T06:53:51.118Z,136.00
2022-10-04T06:54:51.154Z,136.00
2022-10-04T06:55:51.108Z,144.00
2022-10-04T06:56:51.083Z,164.00
2022-10-04T06:57:51.070Z,172.00
2022-10-04T06:58:51.096Z,188.00
2022-10-04T06:59:51.057Z,192.00
2022-10-04T07:00:51.093Z,244.00
2022-10-04T07:01:51.106Z,312.00
2022-10-04T07:02:51.039Z,280.00
2022-10-04T07:03:51.841Z,300.00
2022-10-04T07:05:07.494Z,316.00
2022-10-04T07:05:51.979Z,476.00
2022-10-04T07:06:50.983Z,404.00
2022-10-04T07:07:50.992Z,340.00
2022-10-04T07:08:50.961Z,244.00
2022-10-04T07:09:50.955Z,216.00
2022-10-04T07:10:50.958Z,196.00
2022-10-04T07:11:50.927Z,204.00
2022-10-04T07:12:50.938Z,204.00
2022-10-04T07:13:50.902Z,204.00
2022-10-04T07:14:50.890Z,208.00
2022-10-04T07:15:50.901Z,208.00
2022-10-04T07:16:50.888Z,216.00
2022-10-04T07:17:50.851Z,220.00
2022-10-04T07:18:50.847Z,224.00
2022-10-04T07:19:50.831Z,228.00
2022-10-04T07:20:50.832Z,252.00
2022-10-04T07:21:50.844Z,292.00
2022-10-04T07:22:50.797Z,292.00
2022-10-04T07:23:50.812Z,300.00
2022-10-04T07:24:50.785Z,324.00
2022-10-04T07:25:50.772Z,392.00
2022-10-04T07:26:50.904Z,396.00
2022-10-04T07:27:50.801Z,432.00
2022-10-04T07:28:50.769Z,456.00
2022-10-04T07:29:50.731Z,640.00
2022-10-04T07:30:50.786Z,640.00
2022-10-04T07:31:50.694Z,736.00
2022-10-04T07:32:50.720Z,572.00
2022-10-04T07:33:50.697Z,700.00
2022-10-04T07:34:50.666Z,524.00
2022-10-04T07:35:50.682Z,576.00
2022-10-04T07:36:50.649Z,760.00
2022-10-04T07:37:50.634Z,560.00
2022-10-04T07:38:50.663Z,964.00
2022-10-04T07:39:50.637Z,732.00
2022-10-04T07:40:50.649Z,672.00
2022-10-04T07:41:50.593Z,700.00
2022-10-04T07:42:50.636Z,856.00
2022-10-04T07:43:50.569Z,1240.00
2022-10-04T07:44:50.556Z,2064.00
2022-10-04T07:45:50.595Z,1652.00
2022-10-04T07:46:50.540Z,2180.00
2022-10-04T07:47:50.539Z,1920.00
2022-10-04T07:48:50.547Z,2140.00
2022-10-04T07:49:50.531Z,1816.00
2022-10-04T07:50:50.497Z,2080.00
2022-10-04T07:51:50.491Z,1616.00
2022-10-04T07:52:50.510Z,2000.00
2022-10-04T07:53:50.489Z,2372.00
2022-10-04T07:54:50.455Z,2220.00
2022-10-04T07:55:50.446Z,2232.00
2022-10-04T07:56:50.443Z,2212.00
2022-10-04T07:57:50.459Z,1960.00
2022-10-04T07:58:50.420Z,1044.00
2022-10-04T07:59:50.399Z,832.00
2022-10-04T08:00:50.385Z,836.00
2022-10-04T08:01:50.447Z,968.00
2022-10-04T08:02:50.498Z,908.00
2022-10-04T08:03:50.366Z,820.00
2022-10-04T08:04:50.347Z,916.00
2022-10-04T08:05:50.326Z,956.00
2022-10-04T08:06:50.321Z,968.00
2022-10-04T08:07:50.321Z,908.00
2022-10-04T08:08:50.320Z,864.00
2022-10-04T08:09:50.314Z,788.00
2022-10-04T08:10:54.117Z,828.00
2022-10-04T08:11:51.266Z,772.00
2022-10-04T08:12:50.282Z,736.00
2022-10-04T08:13:50.254Z,740.00
2022-10-04T08:14:50.258Z,732.00
2022-10-04T08:15:50.303Z,740.00
2022-10-04T08:16:50.243Z,800.00
2022-10-04T08:17:50.195Z,776.00
2022-10-04T08:18:50.189Z,840.00
2022-10-04T08:19:50.179Z,992.00
2022-10-04T08:20:50.176Z,968.00
2022-10-04T08:21:50.241Z,1112.00
2022-10-04T08:22:50.160Z,1156.00
2022-10-04T08:23:50.157Z,1036.00
2022-10-04T08:24:53.498Z,836.00
2022-10-04T08:25:50.115Z,716.00
2022-10-04T08:26:50.098Z,648.00
2022-10-04T08:27:50.276Z,668.00
2022-10-04T08:28:50.099Z,656.00
2022-10-04T08:29:50.071Z,620.00
2022-10-04T08:30:50.108Z,604.00
2022-10-04T08:31:50.076Z,612.00
2022-10-04T08:32:50.147Z,652.00
2022-10-04T08:33:50.057Z,632.00
2022-10-04T08:34:50.025Z,848.00
2022-10-04T08:35:50.006Z,780.00
2022-10-04T08:36:50.014Z,900.00
2022-10-04T08:37:50.012Z,980.00
2022-10-04T08:38:49.989Z,1080.00
2022-10-04T08:39:49.965Z,1092.00
2022-10-04T08:40:49.946Z,1044.00
2022-10-04T08:41:49.956Z,980.00
2022-10-04T08:42:49.931Z,936.00
2022-10-04T08:43:49.946Z,1028.00
2022-10-04T08:44:49.913Z,1100.00
2022-10-04T08:45:49.906Z,852.00
2022-10-04T08:46:49.999Z,1276.00
2022-10-04T08:47:49.913Z,900.00
2022-10-04T08:48:49.865Z,1216.00
2022-10-04T08:49:49.850Z,1444.00
2022-10-04T08:50:49.836Z,1496.00
2022-10-04T08:51:49.844Z,1368.00
2022-10-04T08:52:49.832Z,1400.00
2022-10-04T08:53:49.808Z,1500.00
2022-10-04T08:54:49.815Z,1460.00
2022-10-04T08:55:49.783Z,1404.00
2022-10-04T08:56:49.799Z,1496.00
2022-10-04T08:57:49.770Z,1520.00
2022-10-04T08:58:49.749Z,1584.00
2022-10-04T08:59:49.759Z,1640.00
2022-10-04T09:00:49.767Z,1136.00
2022-10-04T09:01:49.756Z,1504.00
2022-10-04T09:02:49.832Z,1696.00
2022-10-04T09:03:49.692Z,1700.00
2022-10-04T09:04:49.684Z,1340.00
2022-10-04T09:05:49.725Z,1428.00
2022-10-04T09:06:49.676Z,1292.00
2022-10-04T09:07:49.654Z,1564.00
2022-10-04T09:08:49.637Z,1856.00
2022-10-04T09:09:49.631Z,1756.00
2022-10-04T09:10:49.614Z,1456.00
2022-10-04T09:11:49.630Z,1592.00
2022-10-04T09:12:49.605Z,1652.00
2022-10-04T09:13:49.591Z,1624.00
2022-10-04T09:14:49.571Z,1996.00
2022-10-04T09:15:49.679Z,2140.00
2022-10-04T09:16:49.554Z,1632.00
2022-10-04T09:17:49.547Z,2248.00
2022-10-04T09:18:49.546Z,2224.00
2022-10-04T09:19:49.528Z,2164.00
2022-10-04T09:20:49.545Z,2124.00
2022-10-04T09:21:49.508Z,1956.00
2022-10-04T09:22:49.502Z,1976.00
2022-10-04T09:23:49.476Z,2040.00
2022-10-04T09:24:49.483Z,2052.00
2022-10-04T09:25:49.475Z,2168.00
2022-10-04T09:26:49.443Z,2208.00
2022-10-04T09:27:54.881Z,2380.00
2022-10-04T09:28:50.435Z,2488.00
2022-10-04T09:29:49.417Z,2700.00
2022-10-04T09:30:49.489Z,2680.00
2022-10-04T09:31:49.387Z,2376.00
2022-10-04T09:32:49.381Z,1800.00
2022-10-04T09:33:49.383Z,1800.00
2022-10-04T09:34:50.279Z,1492.00
2022-10-04T09:35:49.343Z,1772.00
2022-10-04T09:36:49.366Z,2172.00
2022-10-04T09:37:49.324Z,2292.00
2022-10-04T09:38:57.717Z,1980.00
2022-10-04T09:39:50.314Z,1788.00
2022-10-04T09:40:49.316Z,1856.00
2022-10-04T09:41:49.277Z,2032.00
2022-10-04T09:42:49.287Z,1952.00
2022-10-04T09:43:49.323Z,2012.00
2022-10-04T09:44:49.269Z,1716.00
2022-10-04T09:45:49.257Z,1740.00
2022-10-04T09:46:53.198Z,1660.00
2022-10-04T09:47:50.232Z,1820.00
2022-10-04T09:48:49.217Z,1776.00
2022-10-04T09:49:49.200Z,1728.00
2022-10-04T09:50:49.201Z,1792.00
2022-10-04T09:51:49.159Z,1948.00
2022-10-04T09:52:49.181Z,1972.00
2022-10-04T09:53:49.163Z,2000.00
2022-10-04T09:54:49.130Z,2100.00
2022-10-04T09:55:49.134Z,2096.00
2022-10-04T09:56:49.110Z,2124.00
2022-10-04T09:57:49.143Z,2124.00
2022-10-04T09:58:49.094Z,2124.00
2022-10-04T09:59:49.080Z,2104.00
2022-10-04T10:00:49.070Z,2112.00
2022-10-04T10:01:49.095Z,2104.00
2022-10-04T10:02:49.244Z,2100.00
2022-10-04T10:03:49.058Z,2100.00
2022-10-04T10:04:49.019Z,2088.00
2022-10-04T10:05:49.017Z,2100.00
2022-10-04T10:06:49.018Z,2108.00
2022-10-04T10:07:49.014Z,2112.00
2022-10-04T10:08:48.991Z,2108.00
2022-10-04T10:09:48.970Z,2100.00
2022-10-04T10:10:48.953Z,2112.00
2022-10-04T10:11:48.967Z,2116.00
2022-10-04T10:12:48.939Z,2128.00
2022-10-04T10:13:48.930Z,2144.00
2022-10-04T10:14:48.924Z,1548.00
2022-10-04T10:15:48.967Z,1708.00
2022-10-04T10:16:48.899Z,1768.00
2022-10-04T10:17:48.889Z,1728.00
2022-10-04T10:18:48.888Z,1840.00
2022-10-04T10:19:48.864Z,2084.00
2022-10-04T10:20:48.903Z,2108.00
2022-10-04T10:21:48.844Z,2116.00
2022-10-04T10:22:48.862Z,2164.00
2022-10-04T10:23:48.821Z,2184.00
2022-10-04T10:24:48.812Z,2204.00
2022-10-04T10:25:48.795Z,2228.00
2022-10-04T10:26:48.814Z,2092.00
2022-10-04T10:27:48.779Z,2076.00
2022-10-04T10:28:48.765Z,2048.00
2022-10-04T10:29:48.754Z,1756.00
2022-10-04T10:30:48.816Z,1564.00
2022-10-04T10:31:48.767Z,1976.00
2022-10-04T10:32:48.744Z,1888.00
2022-10-04T10:33:48.719Z,1892.00
2022-10-04T10:34:48.712Z,2268.00
2022-10-04T10:35:48.687Z,2228.00
2022-10-04T10:36:48.675Z,2060.00
2022-10-04T10:37:48.669Z,2184.00
2022-10-04T10:38:48.686Z,2164.00
2022-10-04T10:39:48.654Z,2156.00
2022-10-04T10:40:48.628Z,2136.00
2022-10-04T10:41:48.627Z,2132.00
2022-10-04T10:42:48.646Z,2132.00
2022-10-04T10:43:48.599Z,2140.00
2022-10-04T10:44:48.583Z,2132.00
2022-10-04T10:45:48.579Z,2056.00
2022-10-04T10:46:48.990Z,2036.00
2022-10-04T10:47:48.557Z,2216.00
2022-10-04T10:48:48.585Z,2204.00
2022-10-04T10:49:48.537Z,2176.00
2022-10-04T10:50:48.520Z,2228.00
2022-10-04T10:51:48.521Z,2248.00
2022-10-04T10:52:48.495Z,2240.00
2022-10-04T10:53:48.520Z,2244.00
2022-10-04T10:54:48.523Z,2272.00
2022-10-04T10:55:48.469Z,2260.00
2022-10-04T10:56:48.550Z,2260.00
2022-10-04T10:57:48.472Z,2280.00
2022-10-04T10:58:48.439Z,2312.00
2022-10-04T10:59:48.444Z,2052.00
2022-10-04T11:00:48.410Z,1284.00
2022-10-04T11:01:48.557Z,1008.00
2022-10-04T11:02:50.236Z,964.00
2022-10-04T11:03:48.593Z,1376.00
2022-10-04T11:04:48.373Z,1764.00
2022-10-04T11:05:48.365Z,1724.00
2022-10-04T11:06:48.556Z,1320.00
2022-10-04T11:07:48.342Z,1248.00
2022-10-04T11:08:48.340Z,2052.00
2022-10-04T11:09:48.315Z,1808.00
2022-10-04T11:10:51.849Z,1876.00
2022-10-04T11:11:48.302Z,1764.00
2022-10-04T11:12:48.293Z,1932.00
2022-10-04T11:13:48.272Z,2084.00
2022-10-04T11:14:48.278Z,2156.00
2022-10-04T11:15:48.322Z,2140.00
2022-10-04T11:16:48.423Z,2164.00
2022-10-04T11:17:48.279Z,1776.00
2022-10-04T11:18:48.223Z,1728.00
2022-10-04T11:19:48.229Z,1340.00
2022-10-04T11:20:48.206Z,1584.00
2022-10-04T11:21:48.190Z,2112.00
2022-10-04T11:22:48.178Z,2092.00
2022-10-04T11:23:48.207Z,2036.00
2022-10-04T11:24:48.158Z,2000.00
2022-10-04T11:25:48.174Z,1952.00
2022-10-04T11:26:48.380Z,1932.00
2022-10-04T11:27:49.553Z,1900.00
2022-10-04T11:28:48.125Z,1884.00
2022-10-04T11:29:48.101Z,1868.00
2022-10-04T11:30:48.135Z,1868.00
2022-10-04T11:31:48.074Z,1872.00
2022-10-04T11:32:48.063Z,1832.00
2022-10-04T11:33:48.058Z,1816.00
2022-10-04T11:34:48.067Z,1808.00
2022-10-04T11:35:48.055Z,1804.00
2022-10-04T11:36:48.369Z,1804.00
2022-10-04T11:37:48.013Z,1796.00
2022-10-04T11:38:48.012Z,1752.00
2022-10-04T11:39:48.004Z,1752.00
2022-10-04T11:40:47.993Z,1764.00
2022-10-04T11:41:47.972Z,1748.00
2022-10-04T11:42:48.035Z,1768.00
2022-10-04T11:43:47.955Z,1760.00
2022-10-04T11:44:47.956Z,1752.00
2022-10-04T11:45:47.935Z,1740.00
2022-10-04T11:46:48.368Z,1744.00
2022-10-04T11:47:47.901Z,1756.00
2022-10-04T11:48:47.884Z,1772.00
2022-10-04T11:49:47.875Z,1804.00
2022-10-04T11:50:47.884Z,1836.00
2022-10-04T11:51:47.876Z,1844.00
2022-10-04T11:52:47.860Z,1852.00
2022-10-04T11:53:47.834Z,1844.00
2022-10-04T11:54:47.889Z,1840.00
2022-10-04T11:55:47.814Z,1868.00
2022-10-04T11:56:48.265Z,1864.00
2022-10-04T11:57:47.792Z,1844.00
2022-10-04T11:58:47.792Z,1820.00
2022-10-04T11:59:47.775Z,1760.00
2022-10-04T12:00:47.781Z,1732.00
2022-10-04T12:01:47.749Z,1736.00
2022-10-04T12:02:47.738Z,1728.00
2022-10-04T12:03:47.846Z,1720.00
2022-10-04T12:04:47.812Z,1716.00
2022-10-04T12:05:47.716Z,1692.00
2022-10-04T12:06:48.131Z,1684.00
2022-10-04T12:07:47.697Z,1676.00
2022-10-04T12:08:47.664Z,1668.00
2022-10-04T12:09:47.661Z,1652.00
2022-10-04T12:10:47.657Z,1648.00
2022-10-04T12:11:50.252Z,1644.00
2022-10-04T12:12:47.648Z,1652.00
2022-10-04T12:13:47.630Z,1640.00
2022-10-04T12:14:47.624Z,1628.00
2022-10-04T12:15:51.720Z,1620.00
2022-10-04T12:16:48.761Z,1612.00
2022-10-04T12:17:47.783Z,1592.00
2022-10-04T12:18:48.276Z,1596.00
2022-10-04T12:19:49.202Z,1576.00
2022-10-04T12:20:47.557Z,1548.00
2022-10-04T12:21:47.542Z,1536.00
2022-10-04T12:22:47.565Z,1532.00
2022-10-04T12:36:52.534Z,1436.00
2022-10-04T12:37:52.490Z,1424.00
2022-10-04T12:38:52.493Z,1424.00
2022-10-04T12:39:52.468Z,1408.00
2022-10-04T12:40:52.481Z,1400.00
2022-10-04T12:41:52.458Z,1392.00
2022-10-04T12:42:52.438Z,1388.00
2022-10-04T12:43:52.427Z,1376.00
2022-10-04T12:44:52.428Z,1372.00
2022-10-04T12:45:52.583Z,1376.00
2022-10-04T12:46:52.410Z,1364.00
2022-10-04T12:47:52.381Z,1368.00
2022-10-04T12:48:52.402Z,1364.00
2022-10-04T12:49:52.361Z,1356.00
2022-10-04T12:50:52.376Z,1340.00
2022-10-04T12:51:52.342Z,1336.00
2022-10-04T12:52:52.389Z,1320.00
2022-10-04T12:53:55.566Z,1312.00
2022-10-04T12:54:53.309Z,1292.00
2022-10-04T12:55:52.297Z,1284.00
2022-10-04T12:56:52.291Z,1276.00
2022-10-04T12:57:52.293Z,1264.00
2022-10-04T12:58:52.269Z,1256.00
2022-10-04T12:59:52.314Z,1256.00
2022-10-04T13:00:52.299Z,1248.00
2022-10-04T13:01:52.310Z,1240.00
2022-10-04T13:02:52.240Z,1228.00
2022-10-04T13:03:52.210Z,1216.00
2022-10-04T13:04:52.246Z,1224.00
2022-10-04T13:05:52.214Z,1220.00
2022-10-04T13:06:52.180Z,1208.00
2022-10-04T13:07:52.168Z,1192.00
2022-10-04T13:08:52.182Z,1188.00
2022-10-04T13:10:19.365Z,1188.00
2022-10-04T13:10:53.160Z,1176.00
2022-10-04T13:11:52.141Z,1172.00
2022-10-04T13:12:52.112Z,1164.00
2022-10-04T13:13:52.103Z,1160.00
2022-10-04T13:14:52.112Z,1152.00
2022-10-04T13:17:53.057Z,1136.00
2022-10-04T13:18:52.053Z,1132.00
2022-10-04T13:19:52.035Z,1124.00
2022-10-04T13:20:52.052Z,1120.00
2022-10-04T13:21:52.030Z,1116.00
2022-10-04T13:22:56.880Z,1104.00
2022-10-04T13:23:52.991Z,1096.00
2022-10-04T13:24:52.007Z,1092.00
2022-10-04T13:25:52.000Z,1080.00
2022-10-04T13:26:51.985Z,1076.00
2022-10-04T13:27:52.035Z,1064.00
2022-10-04T13:28:51.950Z,1040.00
2022-10-04T13:29:51.927Z,1020.00
2022-10-04T13:30:51.956Z,1036.00
2022-10-04T13:31:51.997Z,1040.00
2022-10-04T13:32:51.947Z,1012.00
2022-10-04T13:33:51.892Z,1020.00
2022-10-04T13:34:51.877Z,1016.00
2022-10-04T13:35:51.881Z,1012.00
2022-10-04T13:36:51.866Z,1008.00
2022-10-04T13:37:51.857Z,1008.00
2022-10-04T13:38:51.854Z,1004.00
2022-10-04T13:39:51.815Z,996.00
2022-10-04T13:40:51.825Z,996.00
2022-10-04T13:41:51.815Z,992.00
2022-10-04T13:42:51.801Z,984.00
2022-10-04T13:43:51.801Z,980.00
2022-10-04T13:44:51.785Z,980.00
2022-10-04T13:45:51.810Z,972.00
2022-10-04T13:46:51.743Z,964.00
2022-10-04T13:47:51.733Z,964.00
2022-10-04T13:48:51.721Z,952.00
2022-10-04T13:49:51.743Z,948.00
2022-10-04T13:50:51.703Z,944.00
2022-10-04T13:51:51.686Z,936.00
2022-10-04T13:52:51.685Z,928.00
2022-10-04T13:53:54.077Z,920.00
2022-10-04T13:54:51.694Z,904.00
2022-10-04T13:55:51.647Z,852.00
2022-10-04T13:56:51.657Z,768.00
2022-10-04T13:57:51.631Z,648.00
2022-10-04T13:58:51.613Z,532.00
2022-10-04T13:59:51.616Z,440.00
2022-10-04T14:00:51.657Z,396.00
2022-10-04T14:01:51.607Z,376.00
2022-10-04T14:02:51.646Z,368.00
2022-10-04T14:03:51.561Z,380.00
2022-10-04T14:04:51.546Z,332.00
2022-10-04T14:05:51.556Z,292.00
2022-10-04T14:06:51.563Z,252.00
2022-10-04T14:07:51.544Z,252.00
2022-10-04T14:08:51.519Z,260.00
2022-10-04T14:09:51.505Z,260.00
2022-10-04T14:10:51.483Z,252.00
2022-10-04T14:11:51.486Z,248.00
2022-10-04T14:12:51.538Z,240.00
2022-10-04T14:13:51.492Z,248.00
2022-10-04T14:14:51.459Z,252.00
2022-10-04T14:15:51.429Z,252.00
2022-10-04T14:16:51.497Z,248.00
2022-10-04T14:17:51.431Z,236.00
2022-10-04T14:18:51.401Z,228.00
2022-10-04T14:19:51.390Z,224.00
2022-10-04T14:20:51.378Z,220.00
2022-10-04T14:21:51.368Z,228.00
2022-10-04T14:22:51.364Z,244.00
2022-10-04T14:23:51.378Z,284.00
2022-10-04T14:24:51.350Z,336.00
2022-10-04T14:25:51.328Z,456.00
2022-10-04T14:26:51.311Z,596.00
2022-10-04T14:27:51.357Z,664.00
2022-10-04T14:28:51.315Z,664.00
2022-10-04T14:29:51.275Z,668.00
2022-10-04T14:30:51.273Z,628.00
2022-10-04T14:31:51.383Z,620.00
2022-10-04T14:32:51.248Z,580.00
2022-10-04T14:33:51.256Z,504.00
2022-10-04T14:34:51.240Z,472.00
2022-10-04T14:35:51.214Z,348.00
2022-10-04T14:36:51.204Z,340.00
2022-10-04T14:37:51.255Z,332.00
2022-10-04T14:38:51.180Z,336.00
2022-10-04T14:39:51.204Z,288.00
2022-10-04T14:40:51.162Z,268.00
2022-10-04T14:41:51.153Z,236.00
2022-10-04T14:42:51.149Z,232.00
2022-10-04T14:43:51.136Z,224.00
2022-10-04T14:44:51.191Z,208.00
2022-10-04T14:45:51.178Z,196.00
2022-10-04T14:46:51.094Z,184.00
2022-10-04T14:47:51.092Z,176.00
2022-10-04T14:48:51.073Z,172.00
2022-10-04T14:49:51.800Z,172.00
2022-10-04T14:50:51.077Z,168.00
2022-10-04T14:51:51.054Z,160.00
2022-10-04T14:52:51.033Z,160.00
2022-10-04T14:53:51.022Z,160.00
2022-10-04T14:54:51.037Z,152.00
2022-10-04T14:55:51.012Z,152.00
2022-10-04T14:56:50.988Z,148.00
2022-10-04T14:57:50.991Z,144.00
2022-10-04T14:58:50.962Z,148.00
2022-10-04T14:59:50.975Z,148.00
2022-10-04T15:00:51.077Z,144.00
2022-10-04T15:01:50.931Z,144.00
2022-10-04T15:02:50.921Z,140.00
2022-10-04T15:03:50.912Z,140.00
2022-10-04T15:04:51.045Z,140.00
2022-10-04T15:05:50.888Z,136.00
2022-10-04T15:06:50.938Z,136.00
2022-10-04T15:07:50.871Z,132.00
2022-10-04T15:08:50.875Z,128.00
2022-10-04T15:09:50.891Z,128.00
2022-10-04T15:10:50.843Z,128.00
2022-10-04T15:12:14.312Z,124.00
2022-10-04T15:13:10.431Z,124.00
2022-10-04T15:13:51.827Z,120.00
2022-10-04T15:14:50.793Z,120.00
2022-10-04T15:15:50.876Z,120.00
2022-10-04T15:16:50.802Z,116.00
2022-10-04T15:17:50.764Z,116.00
2022-10-04T15:18:50.767Z,112.00
2022-10-04T15:19:50.765Z,112.00
2022-10-04T15:20:50.737Z,108.00
2022-10-04T15:21:50.719Z,108.00
2022-10-04T15:22:50.713Z,108.00
2022-10-04T15:23:50.697Z,108.00
2022-10-04T15:24:50.717Z,108.00
2022-10-04T15:25:50.679Z,104.00
2022-10-04T15:26:50.662Z,104.00
2022-10-04T15:27:50.663Z,104.00
2022-10-04T15:28:50.652Z,104.00
2022-10-04T15:29:50.665Z,100.00
2022-10-04T15:30:50.711Z,104.00
2022-10-04T15:31:50.638Z,100.00
2022-10-04T15:32:50.640Z,104.00
2022-10-04T15:33:50.589Z,104.00
2022-10-04T15:34:50.580Z,104.00
2022-10-04T15:35:50.570Z,104.00
2022-10-04T15:36:50.570Z,104.00
2022-10-04T15:37:50.574Z,108.00
2022-10-04T15:38:50.543Z,104.00
2022-10-04T15:39:53.555Z,104.00
2022-10-04T15:40:51.542Z,108.00
2022-10-04T15:41:50.510Z,104.00
2022-10-04T15:42:50.507Z,104.00
2022-10-04T15:43:50.485Z,104.00
2022-10-04T15:44:50.486Z,104.00
2022-10-04T15:45:50.580Z,104.00
2022-10-04T15:46:50.460Z,104.00
2022-10-04T15:47:50.441Z,104.00
2022-10-04T15:48:50.459Z,104.00
2022-10-04T15:49:50.426Z,104.00
2022-10-04T15:50:50.438Z,100.00
2022-10-04T15:51:50.436Z,100.00
2022-10-04T15:52:50.389Z,100.00
2022-10-04T15:53:50.380Z,104.00
2022-10-04T15:54:50.379Z,100.00
2022-10-04T15:55:50.365Z,96.00
2022-10-04T15:56:50.348Z,100.00
2022-10-04T15:57:50.357Z,96.00
2022-10-04T15:58:53.090Z,100.00
2022-10-04T15:59:50.339Z,96.00
2022-10-04T16:00:50.315Z,96.00
2022-10-04T16:01:50.380Z,92.00
2022-10-04T16:02:50.344Z,92.00
2022-10-04T16:03:50.267Z,92.00
2022-10-04T16:04:50.342Z,88.00
2022-10-04T16:05:50.259Z,88.00
2022-10-04T16:06:50.256Z,84.00
2022-10-04T16:07:50.231Z,84.00
2022-10-04T16:08:50.214Z,80.00
2022-10-04T16:09:50.203Z,80.00
2022-10-04T16:10:50.211Z,80.00
2022-10-04T16:11:50.183Z,76.00
2022-10-04T16:12:50.182Z,76.00
2022-10-04T16:13:50.187Z,72.00
2022-10-04T16:14:50.149Z,72.00
2022-10-04T16:15:50.253Z,72.00
2022-10-04T16:16:50.138Z,68.00
2022-10-04T16:17:50.119Z,68.00
2022-10-04T16:18:50.116Z,68.00
2022-10-04T16:19:50.123Z,64.00
2022-10-04T16:20:50.165Z,68.00
2022-10-04T16:21:50.077Z,64.00
2022-10-04T16:22:50.064Z,64.00
2022-10-04T16:23:50.055Z,60.00
2022-10-04T16:24:50.055Z,60.00
2022-10-04T16:25:50.058Z,60.00
2022-10-04T16:26:50.052Z,56.00
2022-10-04T16:27:50.026Z,52.00
2022-10-04T16:28:49.997Z,48.00
2022-10-04T16:30:07.960Z,52.00
2022-10-04T16:30:51.014Z,48.00
2022-10-04T16:31:49.967Z,44.00
2022-10-04T16:32:49.954Z,44.00
2022-10-04T16:33:49.971Z,44.00
2022-10-04T16:34:49.932Z,40.00
2022-10-04T16:35:49.925Z,40.00
2022-10-04T16:36:49.954Z,40.00
2022-10-04T16:37:49.931Z,36.00
2022-10-04T16:38:49.891Z,36.00
2022-10-04T16:39:49.886Z,36.00
2022-10-04T16:40:49.869Z,32.00
2022-10-04T16:41:49.856Z,36.00
2022-10-04T16:42:49.853Z,32.00
2022-10-04T16:43:49.869Z,32.00
2022-10-04T16:44:49.828Z,28.00
2022-10-04T16:45:49.899Z,28.00
2022-10-04T16:46:49.816Z,24.00
2022-10-04T16:47:49.817Z,24.00
2022-10-04T16:48:49.816Z,24.00
2022-10-04T16:49:49.767Z,20.00
2022-10-04T16:50:49.761Z,20.00
2022-10-04T16:51:49.774Z,20.00
2022-10-04T16:52:49.809Z,16.00
2022-10-04T16:53:49.731Z,16.00
2022-10-04T16:54:49.737Z,12.00
2022-10-04T16:55:49.710Z,12.00
2022-10-04T16:56:50.093Z,12.00
2022-10-04T16:57:49.728Z,8.00
2022-10-04T16:58:49.674Z,8.00
2022-10-04T16:59:49.666Z,8.00
2022-10-04T17:00:49.781Z,8.00
2022-10-04T17:01:54.289Z,8.00
2022-10-04T17:02:50.631Z,8.00
2022-10-04T17:03:49.675Z,8.00
2022-10-04T17:04:49.607Z,4.00
2022-10-04T17:05:49.602Z,4.00
2022-10-04T17:06:49.807Z,8.00
2022-10-04T17:07:49.578Z,4.00
2022-10-04T17:08:49.650Z,4.00
2022-10-04T17:09:49.578Z,4.00
2022-10-04T17:10:49.553Z,0.00
2022-10-04T17:11:49.576Z,4.00
2022-10-04T17:12:49.540Z,4.00